createdAt,value
2023-03-11T00:00:13.065Z,99593.03
2023-03-11T00:01:11.068Z,99592.44
2023-03-11T00:02:11.117Z,99593.70
2023-03-11T00:03:12.067Z,99592.96
2023-03-11T00:04:11.068Z,99585.07
2023-03-11T00:05:13.136Z,99587.42
2023-03-11T00:06:11.069Z,99583.98
2023-03-11T00:07:11.075Z,99587.21
2023-03-11T00:08:14.072Z,99581.86
2023-03-11T00:09:11.071Z,99582.00
2023-03-11T00:10:15.072Z,99580.43
2023-03-11T00:11:11.083Z,99584.12
2023-03-11T00:12:11.070Z,99579.51
2023-03-11T00:13:11.074Z,99585.68
2023-03-11T00:14:11.079Z,99589.34
2023-03-11T00:15:11.070Z,99590.76
2023-03-11T00:16:11.145Z,99590.29
2023-03-11T00:17:11.079Z,99588.75
2023-03-11T00:18:11.070Z,99585.42
2023-03-11T00:19:11.081Z,99585.79
2023-03-11T00:20:16.076Z,99583.54
2023-03-11T00:21:15.071Z,99583.72
2023-03-11T00:22:11.068Z,99580.23
2023-03-11T00:23:11.074Z,99581.86
2023-03-11T00:24:11.074Z,99583.66
2023-03-11T00:25:11.087Z,99584.21
2023-03-11T00:26:11.071Z,99583.86
2023-03-11T00:27:11.076Z,99585.23
2023-03-11T00:28:11.138Z,99579.43
2023-03-11T00:29:11.077Z,99578.14
2023-03-11T00:30:11.075Z,99578.06
2023-03-11T00:31:11.135Z,99578.89
2023-03-11T00:32:11.079Z,99573.38
2023-03-11T00:33:11.071Z,99569.05
2023-03-11T00:34:11.090Z,99571.85
2023-03-11T00:35:13.078Z,99566.43
2023-03-11T00:36:21.068Z,99569.82
2023-03-11T00:37:11.083Z,99572.48
2023-03-11T00:38:12.072Z,99571.13
2023-03-11T00:39:14.074Z,99570.07
2023-03-11T00:40:14.066Z,99570.82
2023-03-11T00:41:11.077Z,99572.16
2023-03-11T00:42:11.080Z,99569.68
2023-03-11T00:43:11.064Z,99573.08
2023-03-11T00:44:11.083Z,99571.39
2023-03-11T00:45:11.082Z,99572.41
2023-03-11T00:46:11.152Z,99568.03
2023-03-11T00:47:13.072Z,99569.30
2023-03-11T00:48:11.076Z,99568.60
2023-03-11T00:49:11.076Z,99569.11
2023-03-11T00:50:13.069Z,99570.54
2023-03-11T00:51:14.077Z,99572.01
2023-03-11T00:52:11.066Z,99572.21
2023-03-11T00:53:11.075Z,99578.98
2023-03-11T00:54:11.071Z,99572.87
2023-03-11T00:55:11.075Z,99578.49
2023-03-11T00:56:13.069Z,99582.11
2023-03-11T00:57:11.072Z,99582.11
2023-03-11T00:58:11.070Z,99582.20
2023-03-11T00:59:11.070Z,99582.10
2023-03-11T01:00:13.070Z,99581.55
2023-03-11T01:01:11.111Z,99581.27
2023-03-11T01:02:11.064Z,99578.59
2023-03-11T01:03:11.063Z,99570.06
2023-03-11T01:04:11.127Z,99568.05
2023-03-11T01:05:11.086Z,99567.97
2023-03-11T01:06:11.065Z,99566.73
2023-03-11T01:07:11.481Z,99567.60
2023-03-11T01:08:11.063Z,99567.85
2023-03-11T01:09:11.062Z,99563.40
2023-03-11T01:10:11.072Z,99564.87
2023-03-11T01:11:11.060Z,99564.80
2023-03-11T01:12:11.072Z,99566.04
2023-03-11T01:13:11.081Z,99566.20
2023-03-11T01:14:11.062Z,99565.97
2023-03-11T01:15:15.068Z,99569.18
2023-03-11T01:16:11.110Z,99568.46
2023-03-11T01:17:11.067Z,99567.02
2023-03-11T01:18:11.068Z,99563.85
2023-03-11T01:19:11.063Z,99563.26
2023-03-11T01:20:12.066Z,99562.83
2023-03-11T01:21:11.071Z,99558.75
2023-03-11T01:22:11.067Z,99564.79
2023-03-11T01:23:11.072Z,99562.86
2023-03-11T01:24:11.068Z,99567.12
2023-03-11T01:25:12.063Z,99567.34
2023-03-11T01:26:11.086Z,99564.44
2023-03-11T01:27:11.066Z,99560.34
2023-03-11T01:28:11.064Z,99560.39
2023-03-11T01:29:11.058Z,99558.62
2023-03-11T01:30:12.064Z,99561.81
2023-03-11T01:31:11.132Z,99564.14
2023-03-11T01:32:11.238Z,99566.43
2023-03-11T01:33:15.082Z,99563.27
2023-03-11T01:34:11.067Z,99561.70
2023-03-11T01:35:14.064Z,99564.46
2023-03-11T01:36:11.062Z,99564.78
2023-03-11T01:37:11.069Z,99569.19
2023-03-11T01:38:11.060Z,99567.68
2023-03-11T01:39:11.061Z,99566.61
2023-03-11T01:40:15.062Z,99561.13
2023-03-11T01:41:11.063Z,99558.91
2023-03-11T01:42:11.059Z,99558.61
2023-03-11T01:43:19.062Z,99559.21
2023-03-11T01:44:12.072Z,99562.02
2023-03-11T01:45:21.062Z,99560.81
2023-03-11T01:46:23.158Z,99561.37
2023-03-11T01:47:21.075Z,99559.08
2023-03-11T01:48:11.062Z,99560.32
2023-03-11T01:49:13.061Z,99554.12
2023-03-11T01:50:12.060Z,99553.55
2023-03-11T01:51:11.063Z,99551.59
2023-03-11T01:52:11.058Z,99550.41
2023-03-11T01:53:11.060Z,99548.42
2023-03-11T01:54:20.062Z,99543.88
2023-03-11T01:55:12.069Z,99541.80
2023-03-11T01:56:11.064Z,99543.18
2023-03-11T01:57:12.057Z,99540.64
2023-03-11T01:58:14.058Z,99542.12
2023-03-11T01:59:12.066Z,99540.60
2023-03-11T02:00:11.063Z,99540.82
2023-03-11T02:01:11.062Z,99541.87
2023-03-11T02:02:19.057Z,99541.52
2023-03-11T02:03:20.193Z,99540.07
2023-03-11T02:04:11.061Z,99540.23
2023-03-11T02:05:11.059Z,99542.77
2023-03-11T02:06:13.075Z,99540.55
2023-03-11T02:07:11.059Z,99544.48
2023-03-11T02:08:11.074Z,99544.54
2023-03-11T02:09:11.059Z,99545.71
2023-03-11T02:10:11.062Z,99551.36
2023-03-11T02:11:11.069Z,99554.74
2023-03-11T02:12:11.061Z,99555.48
2023-03-11T02:13:11.064Z,99552.96
2023-03-11T02:14:11.070Z,99553.97
2023-03-11T02:15:11.064Z,99552.50
2023-03-11T02:16:11.097Z,99550.23
2023-03-11T02:17:11.086Z,99547.60
2023-03-11T02:18:12.066Z,99543.91
2023-03-11T02:19:21.061Z,99539.60
2023-03-11T02:20:19.066Z,99539.16
2023-03-11T02:21:19.080Z,99532.84
2023-03-11T02:22:13.087Z,99530.06
2023-03-11T02:23:11.064Z,99532.63
2023-03-11T02:24:19.064Z,99526.27
2023-03-11T02:25:21.090Z,99525.64
2023-03-11T02:26:16.075Z,99524.22
2023-03-11T02:27:12.067Z,99522.59
2023-03-11T02:28:11.071Z,99519.73
2023-03-11T02:29:11.082Z,99515.56
2023-03-11T02:30:13.071Z,99513.10
2023-03-11T02:31:11.122Z,99511.46
2023-03-11T02:32:11.096Z,99512.17
2023-03-11T02:33:11.071Z,99509.94
2023-03-11T02:34:17.071Z,99511.72
2023-03-11T02:35:11.070Z,99508.55
2023-03-11T02:36:21.080Z,99508.55
2023-03-11T02:37:11.073Z,99509.65
2023-03-11T02:38:11.072Z,99510.41
2023-03-11T02:39:11.082Z,99512.51
2023-03-11T02:40:19.068Z,99511.57
2023-03-11T02:41:11.069Z,99510.24
2023-03-11T02:42:16.073Z,99509.52
2023-03-11T02:43:13.072Z,99511.23
2023-03-11T02:44:12.071Z,99511.80
2023-03-11T02:45:13.068Z,99513.73
2023-03-11T02:46:11.075Z,99515.94
2023-03-11T02:47:11.067Z,99518.80
2023-03-11T02:48:12.072Z,99515.86
2023-03-11T02:49:11.080Z,99517.98
2023-03-11T02:50:11.099Z,99522.09
2023-03-11T02:51:11.068Z,99525.32
2023-03-11T02:52:11.072Z,99522.61
2023-03-11T02:53:11.065Z,99517.13
2023-03-11T02:54:11.065Z,99516.73
2023-03-11T02:55:11.066Z,99517.23
2023-03-11T02:56:11.065Z,99517.68
2023-03-11T02:57:11.064Z,99515.19
2023-03-11T02:58:11.066Z,99517.45
2023-03-11T02:59:11.069Z,99518.08
2023-03-11T03:00:15.086Z,99518.30
2023-03-11T03:01:11.154Z,99520.33
2023-03-11T03:02:11.065Z,99515.97
2023-03-11T03:03:11.062Z,99518.40
2023-03-11T03:04:11.102Z,99516.11
2023-03-11T03:05:11.073Z,99515.80
2023-03-11T03:06:11.067Z,99513.81
2023-03-11T03:07:11.066Z,99513.95
2023-03-11T03:08:11.073Z,99512.42
2023-03-11T03:09:11.062Z,99510.00
2023-03-11T03:10:11.063Z,99508.75
2023-03-11T03:11:11.066Z,99511.48
2023-03-11T03:12:11.059Z,99513.09
2023-03-11T03:13:11.059Z,99517.47
2023-03-11T03:14:11.073Z,99513.84
2023-03-11T03:15:11.068Z,99516.12
2023-03-11T03:16:11.105Z,99512.90
2023-03-11T03:17:11.204Z,99510.66
2023-03-11T03:18:11.062Z,99507.38
2023-03-11T03:19:11.063Z,99508.68
2023-03-11T03:20:15.068Z,99510.74
2023-03-11T03:21:11.061Z,99515.33
2023-03-11T03:22:11.062Z,99513.47
2023-03-11T03:23:11.071Z,99511.14
2023-03-11T03:24:11.062Z,99510.93
2023-03-11T03:25:11.065Z,99512.47
2023-03-11T03:26:12.065Z,99508.49
2023-03-11T03:27:11.060Z,99510.00
2023-03-11T03:28:11.063Z,99511.68
2023-03-11T03:29:11.075Z,99508.69
2023-03-11T03:30:11.068Z,99512.03
2023-03-11T03:31:11.073Z,99509.23
2023-03-11T03:32:11.072Z,99504.81
2023-03-11T03:33:11.078Z,99501.39
2023-03-11T03:34:11.069Z,99500.45
2023-03-11T03:35:11.066Z,99498.94
2023-03-11T03:36:11.126Z,99501.89
2023-03-11T03:37:11.079Z,99503.34
2023-03-11T03:38:11.070Z,99502.36
2023-03-11T03:39:11.063Z,99498.58
2023-03-11T03:40:13.068Z,99502.00
2023-03-11T03:41:11.068Z,99501.55
2023-03-11T03:42:11.065Z,99508.14
2023-03-11T03:43:11.067Z,99503.09
2023-03-11T03:44:11.069Z,99501.30
2023-03-11T03:45:11.068Z,99499.22
2023-03-11T03:46:11.121Z,99496.73
2023-03-11T03:47:11.078Z,99497.07
2023-03-11T03:48:11.065Z,99494.44
2023-03-11T03:49:11.081Z,99503.46
2023-03-11T03:50:11.072Z,99503.04
2023-03-11T03:51:12.070Z,99507.22
2023-03-11T03:52:11.066Z,99511.03
2023-03-11T03:53:11.067Z,99515.10
2023-03-11T03:54:11.066Z,99515.86
2023-03-11T03:55:11.065Z,99516.14
2023-03-11T03:56:11.074Z,99512.45
2023-03-11T03:57:11.065Z,99513.35
2023-03-11T03:58:11.068Z,99511.95
2023-03-11T03:59:11.076Z,99511.37
2023-03-11T04:00:12.072Z,99510.95
2023-03-11T04:01:11.062Z,99514.60
2023-03-11T04:02:11.129Z,99514.59
2023-03-11T04:03:11.271Z,99511.51
2023-03-11T04:04:11.063Z,99509.27
2023-03-11T04:05:11.063Z,99509.16
2023-03-11T04:06:15.061Z,99510.50
2023-03-11T04:07:11.065Z,99512.39
2023-03-11T04:08:11.063Z,99512.17
2023-03-11T04:09:11.062Z,99514.50
2023-03-11T04:10:11.077Z,99512.33
2023-03-11T04:11:11.065Z,99509.14
2023-03-11T04:12:15.061Z,99511.83
2023-03-11T04:13:11.064Z,99510.67
2023-03-11T04:14:11.063Z,99514.04
2023-03-11T04:15:11.066Z,99510.22
2023-03-11T04:16:13.072Z,99513.20
2023-03-11T04:17:13.087Z,99510.95
2023-03-11T04:18:11.072Z,99510.62
2023-03-11T04:19:11.076Z,99514.16
2023-03-11T04:20:14.065Z,99514.64
2023-03-11T04:21:11.063Z,99518.80
2023-03-11T04:22:11.066Z,99520.80
2023-03-11T04:23:11.079Z,99519.99
2023-03-11T04:24:11.065Z,99520.00
2023-03-11T04:25:11.065Z,99521.89
2023-03-11T04:26:11.066Z,99522.58
2023-03-11T04:27:11.069Z,99524.75
2023-03-11T04:28:11.065Z,99524.04
2023-03-11T04:29:11.065Z,99529.66
2023-03-11T04:30:11.058Z,99530.19
2023-03-11T04:31:11.094Z,99529.08
2023-03-11T04:32:11.061Z,99528.96
2023-03-11T04:33:11.056Z,99530.58
2023-03-11T04:34:11.069Z,99530.05
2023-03-11T04:35:11.059Z,99528.76
2023-03-11T04:36:11.055Z,99524.36
2023-03-11T04:37:11.064Z,99524.51
2023-03-11T04:38:11.058Z,99528.38
2023-03-11T04:39:11.054Z,99527.84
2023-03-11T04:40:11.120Z,99533.00
2023-03-11T04:41:11.058Z,99536.34
2023-03-11T04:42:11.057Z,99542.66
2023-03-11T04:43:11.064Z,99545.45
2023-03-11T04:44:11.056Z,99551.71
2023-03-11T04:45:11.060Z,99553.39
2023-03-11T04:46:11.106Z,99558.96
2023-03-11T04:47:11.083Z,99563.11
2023-03-11T04:48:11.052Z,99563.48
2023-03-11T04:49:11.064Z,99567.83
2023-03-11T04:50:11.056Z,99567.91
2023-03-11T04:51:11.061Z,99566.86
2023-03-11T04:52:11.068Z,99563.83
2023-03-11T04:53:11.062Z,99557.55
2023-03-11T04:54:11.063Z,99557.19
2023-03-11T04:55:11.068Z,99554.79
2023-03-11T04:56:11.063Z,99553.86
2023-03-11T04:57:11.053Z,99553.93
2023-03-11T04:58:11.093Z,99560.59
2023-03-11T04:59:11.055Z,99563.15
2023-03-11T05:00:15.055Z,99568.75
2023-03-11T05:01:11.105Z,99570.47
2023-03-11T05:02:12.878Z,99568.42
2023-03-11T05:03:11.106Z,99564.72
2023-03-11T05:04:11.157Z,99565.80
2023-03-11T05:05:11.056Z,99568.46
2023-03-11T05:06:11.066Z,99566.64
2023-03-11T05:07:11.064Z,99559.34
2023-03-11T05:08:11.056Z,99560.25
2023-03-11T05:09:11.061Z,99559.31
2023-03-11T05:10:11.077Z,99560.35
2023-03-11T05:11:11.054Z,99558.18
2023-03-11T05:12:12.060Z,99562.44
2023-03-11T05:13:11.066Z,99565.05
2023-03-11T05:14:11.056Z,99564.35
2023-03-11T05:15:11.060Z,99557.10
2023-03-11T05:16:11.132Z,99551.16
2023-03-11T05:17:11.057Z,99552.36
2023-03-11T05:18:11.057Z,99547.89
2023-03-11T05:19:15.062Z,99546.74
2023-03-11T05:20:15.093Z,99539.05
2023-03-11T05:21:11.055Z,99539.36
2023-03-11T05:22:11.069Z,99542.08
2023-03-11T05:23:13.063Z,99541.34
2023-03-11T05:24:11.057Z,99543.25
2023-03-11T05:25:11.066Z,99547.40
2023-03-11T05:26:11.058Z,99551.10
2023-03-11T05:27:11.059Z,99549.77
2023-03-11T05:28:11.067Z,99549.59
2023-03-11T05:29:11.057Z,99551.40
2023-03-11T05:30:11.061Z,99554.29
2023-03-11T05:31:11.150Z,99559.61
2023-03-11T05:32:11.059Z,99557.68
2023-03-11T05:33:11.057Z,99554.46
2023-03-11T05:34:11.067Z,99552.12
2023-03-11T05:35:11.059Z,99547.73
2023-03-11T05:36:11.062Z,99551.47
2023-03-11T05:37:11.067Z,99556.23
2023-03-11T05:38:11.060Z,99559.71
2023-03-11T05:39:11.072Z,99559.68
2023-03-11T05:40:11.080Z,99564.70
2023-03-11T05:41:11.062Z,99567.29
2023-03-11T05:42:11.065Z,99568.47
2023-03-11T05:43:11.074Z,99574.07
2023-03-11T05:44:11.064Z,99577.66
2023-03-11T05:45:11.063Z,99578.37
2023-03-11T05:46:11.148Z,99577.64
2023-03-11T05:47:11.060Z,99579.35
2023-03-11T05:48:11.064Z,99580.56
2023-03-11T05:49:11.065Z,99582.27
2023-03-11T05:50:11.061Z,99578.38
2023-03-11T05:51:11.064Z,99583.64
2023-03-11T05:52:11.065Z,99589.65
2023-03-11T05:53:11.065Z,99589.52
2023-03-11T05:54:15.314Z,99588.56
2023-03-11T05:55:11.066Z,99589.32
2023-03-11T05:56:11.062Z,99590.72
2023-03-11T05:57:11.064Z,99591.38
2023-03-11T05:58:11.099Z,99588.69
2023-03-11T05:59:11.064Z,99591.38
2023-03-11T06:00:11.063Z,99592.18
2023-03-11T06:01:11.065Z,99595.17
2023-03-11T06:02:11.061Z,99600.89
2023-03-11T06:03:11.061Z,99602.04
2023-03-11T06:04:11.169Z,99605.25
2023-03-11T06:05:13.509Z,99606.90
2023-03-11T06:06:11.059Z,99603.57
2023-03-11T06:07:11.071Z,99605.04
2023-03-11T06:08:11.060Z,99605.20
2023-03-11T06:09:13.059Z,99610.98
2023-03-11T06:10:11.067Z,99606.31
2023-03-11T06:11:11.063Z,99606.12
2023-03-11T06:12:11.060Z,99605.50
2023-03-11T06:13:11.060Z,99597.18
2023-03-11T06:14:12.064Z,99599.57
2023-03-11T06:15:11.059Z,99596.14
2023-03-11T06:16:11.113Z,99595.13
2023-03-11T06:17:11.058Z,99593.55
2023-03-11T06:18:11.059Z,99586.25
2023-03-11T06:19:11.072Z,99584.50
2023-03-11T06:20:11.063Z,99585.43
2023-03-11T06:21:14.063Z,99580.87
2023-03-11T06:22:11.062Z,99581.67
2023-03-11T06:23:11.059Z,99582.98
2023-03-11T06:24:11.067Z,99586.15
2023-03-11T06:25:11.076Z,99589.26
2023-03-11T06:26:11.071Z,99589.74
2023-03-11T06:27:11.083Z,99588.42
2023-03-11T06:28:11.066Z,99589.29
2023-03-11T06:29:14.057Z,99589.60
2023-03-11T06:30:11.064Z,99588.87
2023-03-11T06:31:22.120Z,99585.73
2023-03-11T06:32:11.062Z,99586.32
2023-03-11T06:33:11.059Z,99580.90
2023-03-11T06:34:11.065Z,99583.02
2023-03-11T06:35:11.065Z,99582.07
2023-03-11T06:36:11.132Z,99584.53
2023-03-11T06:37:11.063Z,99586.42
2023-03-11T06:38:11.062Z,99583.74
2023-03-11T06:39:12.057Z,99583.65
2023-03-11T06:40:11.077Z,99586.90
2023-03-11T06:41:11.065Z,99589.81
2023-03-11T06:42:13.079Z,99591.41
2023-03-11T06:43:11.060Z,99596.56
2023-03-11T06:44:11.064Z,99600.89
2023-03-11T06:45:11.060Z,99599.56
2023-03-11T06:46:17.156Z,99595.37
2023-03-11T06:47:11.068Z,99594.75
2023-03-11T06:48:11.060Z,99598.22
2023-03-11T06:49:11.061Z,99599.63
2023-03-11T06:50:12.092Z,99606.19
2023-03-11T06:51:11.063Z,99607.92
2023-03-11T06:52:11.064Z,99610.29
2023-03-11T06:53:11.082Z,99613.57
2023-03-11T06:54:11.062Z,99605.46
2023-03-11T06:55:11.071Z,99604.98
2023-03-11T06:56:11.114Z,99594.12
2023-03-11T06:57:11.064Z,99589.38
2023-03-11T06:58:11.062Z,99587.24
2023-03-11T06:59:11.067Z,99590.59
2023-03-11T07:00:11.068Z,99594.19
2023-03-11T07:01:16.148Z,99590.99
2023-03-11T07:02:15.075Z,99586.40
2023-03-11T07:03:11.059Z,99588.61
2023-03-11T07:04:11.143Z,99590.40
2023-03-11T07:05:11.067Z,99588.89
2023-03-11T07:06:15.058Z,99594.05
2023-03-11T07:07:11.058Z,99592.66
2023-03-11T07:08:11.067Z,99590.43
2023-03-11T07:09:11.074Z,99590.81
2023-03-11T07:10:11.064Z,99587.73
2023-03-11T07:11:15.068Z,99583.51
2023-03-11T07:12:11.062Z,99582.42
2023-03-11T07:13:11.062Z,99584.88
2023-03-11T07:14:11.072Z,99587.66
2023-03-11T07:15:11.064Z,99594.92
2023-03-11T07:16:12.096Z,99590.33
2023-03-11T07:17:11.068Z,99593.34
2023-03-11T07:18:11.059Z,99591.70
2023-03-11T07:19:11.068Z,99591.32
2023-03-11T07:20:11.074Z,99589.12
2023-03-11T07:21:12.058Z,99584.34
2023-03-11T07:22:11.065Z,99581.88
2023-03-11T07:23:11.069Z,99577.25
2023-03-11T07:24:12.059Z,99576.27
2023-03-11T07:25:11.060Z,99573.70
2023-03-11T07:26:11.071Z,99573.56
2023-03-11T07:27:11.060Z,99574.25
2023-03-11T07:28:11.067Z,99575.08
2023-03-11T07:29:11.070Z,99577.74
2023-03-11T07:30:11.068Z,99579.87
2023-03-11T07:31:14.288Z,99579.66
2023-03-11T07:32:11.077Z,99580.18
2023-03-11T07:33:11.076Z,99583.33
2023-03-11T07:34:11.078Z,99582.88
2023-03-11T07:35:11.075Z,99582.22
2023-03-11T07:36:15.059Z,99580.96
2023-03-11T07:37:11.063Z,99583.54
2023-03-11T07:38:11.068Z,99583.78
2023-03-11T07:39:14.059Z,99584.85
2023-03-11T07:40:11.069Z,99586.08
2023-03-11T07:41:11.075Z,99591.45
2023-03-11T07:42:11.063Z,99596.19
2023-03-11T07:43:11.063Z,99600.05
2023-03-11T07:44:12.070Z,99601.84
2023-03-11T07:45:11.058Z,99602.87
2023-03-11T07:46:14.284Z,99608.66
2023-03-11T07:47:11.068Z,99613.16
2023-03-11T07:48:11.067Z,99612.62
2023-03-11T07:49:11.062Z,99610.38
2023-03-11T07:50:11.070Z,99617.66
2023-03-11T07:51:14.062Z,99611.00
2023-03-11T07:52:11.062Z,99611.63
2023-03-11T07:53:11.070Z,99611.53
2023-03-11T07:54:11.068Z,99604.68
2023-03-11T07:55:11.060Z,99609.03
2023-03-11T07:56:11.067Z,99608.25
2023-03-11T07:57:11.059Z,99603.67
2023-03-11T07:58:11.071Z,99602.88
2023-03-11T07:59:11.068Z,99596.45
2023-03-11T08:00:11.069Z,99598.74
2023-03-11T08:01:14.078Z,99596.63
2023-03-11T08:02:11.103Z,99592.68
2023-03-11T08:03:11.084Z,99589.04
2023-03-11T08:04:13.985Z,99591.13
2023-03-11T08:05:11.070Z,99585.06
2023-03-11T08:06:15.074Z,99588.45
2023-03-11T08:07:11.057Z,99588.57
2023-03-11T08:08:11.073Z,99594.80
2023-03-11T08:09:11.066Z,99598.09
2023-03-11T08:10:11.063Z,99594.76
2023-03-11T08:11:11.070Z,99594.45
2023-03-11T08:12:11.061Z,99592.49
2023-03-11T08:13:11.065Z,99587.25
2023-03-11T08:14:11.068Z,99590.62
2023-03-11T08:15:11.059Z,99588.20
2023-03-11T08:16:11.216Z,99587.27
2023-03-11T08:17:11.070Z,99589.15
2023-03-11T08:18:11.201Z,99592.88
2023-03-11T08:19:12.062Z,99593.12
2023-03-11T08:20:12.063Z,99595.05
2023-03-11T08:21:12.061Z,99595.20
2023-03-11T08:22:11.063Z,99600.60
2023-03-11T08:23:11.065Z,99602.29
2023-03-11T08:24:12.074Z,99597.70
2023-03-11T08:25:11.062Z,99601.07
2023-03-11T08:26:11.063Z,99601.14
2023-03-11T08:27:11.067Z,99603.00
2023-03-11T08:28:11.070Z,99605.08
2023-03-11T08:29:11.077Z,99601.71
2023-03-11T08:30:11.059Z,99599.88
2023-03-11T08:31:15.182Z,99598.83
2023-03-11T08:32:11.068Z,99602.97
2023-03-11T08:33:11.068Z,99608.03
2023-03-11T08:34:11.065Z,99603.70
2023-03-11T08:35:11.064Z,99604.29
2023-03-11T08:36:11.125Z,99604.24
2023-03-11T08:37:12.072Z,99603.93
2023-03-11T08:38:11.073Z,99600.90
2023-03-11T08:39:11.179Z,99603.23
2023-03-11T08:40:11.073Z,99596.30
2023-03-11T08:41:11.066Z,99597.48
2023-03-11T08:42:11.063Z,99598.48
2023-03-11T08:43:13.071Z,99599.83
2023-03-11T08:44:11.062Z,99599.84
2023-03-11T08:45:11.064Z,99600.13
2023-03-11T08:46:20.134Z,99600.19
2023-03-11T08:47:11.064Z,99596.25
2023-03-11T08:48:12.059Z,99598.90
2023-03-11T08:49:11.069Z,99600.33
2023-03-11T08:50:13.079Z,99597.09
2023-03-11T08:51:11.068Z,99598.91
2023-03-11T08:52:11.068Z,99599.75
2023-03-11T08:53:11.062Z,99598.60
2023-03-11T08:54:11.065Z,99598.79
2023-03-11T08:55:13.067Z,99595.97
2023-03-11T08:56:11.060Z,99598.78
2023-03-11T08:57:11.064Z,99600.32
2023-03-11T08:58:11.085Z,99600.10
2023-03-11T08:59:11.066Z,99597.68
2023-03-11T09:00:13.049Z,99601.73
2023-03-11T09:01:11.070Z,99599.59
2023-03-11T09:02:11.063Z,99599.63
2023-03-11T09:03:11.063Z,99596.42
2023-03-11T09:04:11.088Z,99601.27
2023-03-11T09:05:11.061Z,99598.29
2023-03-11T09:06:12.171Z,99596.45
2023-03-11T09:07:11.069Z,99605.01
2023-03-11T09:08:11.061Z,99601.45
2023-03-11T09:09:13.094Z,99604.99
2023-03-11T09:10:13.063Z,99604.93
2023-03-11T09:11:11.067Z,99603.80
2023-03-11T09:12:11.102Z,99602.57
2023-03-11T09:13:11.064Z,99602.48
2023-03-11T09:14:11.061Z,99600.82
2023-03-11T09:15:11.062Z,99601.89
2023-03-11T09:16:15.111Z,99601.89
2023-03-11T09:17:11.059Z,99599.84
2023-03-11T09:18:13.096Z,99593.92
2023-03-11T09:19:11.072Z,99590.56
2023-03-11T09:20:12.061Z,99591.57
2023-03-11T09:21:11.062Z,99590.47
2023-03-11T09:22:11.064Z,99588.82
2023-03-11T09:23:11.061Z,99590.09
2023-03-11T09:24:11.071Z,99592.64
2023-03-11T09:25:11.071Z,99589.93
2023-03-11T09:26:11.062Z,99586.25
2023-03-11T09:27:11.064Z,99592.25
2023-03-11T09:28:11.081Z,99589.90
2023-03-11T09:29:11.072Z,99582.05
2023-03-11T09:30:11.072Z,99582.19
2023-03-11T09:31:11.128Z,99580.56
2023-03-11T09:32:12.063Z,99581.36
2023-03-11T09:33:11.064Z,99580.98
2023-03-11T09:34:11.074Z,99576.43
2023-03-11T09:35:11.066Z,99581.81
2023-03-11T09:36:14.070Z,99575.66
2023-03-11T09:37:11.068Z,99576.78
2023-03-11T09:38:11.067Z,99576.02
2023-03-11T09:39:11.075Z,99567.95
2023-03-11T09:40:18.068Z,99569.46
2023-03-11T09:41:19.075Z,99566.04
2023-03-11T09:42:19.067Z,99571.98
2023-03-11T09:43:21.065Z,99566.06
2023-03-11T09:44:23.093Z,99571.15
2023-03-11T09:45:19.066Z,99568.97
2023-03-11T09:46:19.112Z,99567.31
2023-03-11T09:47:19.078Z,99568.87
2023-03-11T09:48:22.751Z,99570.61
2023-03-11T09:49:21.096Z,99566.71
2023-03-11T09:50:15.094Z,99572.25
2023-03-11T09:51:20.077Z,99570.70
2023-03-11T09:52:21.099Z,99572.00
2023-03-11T09:53:17.065Z,99573.21
2023-03-11T09:54:13.096Z,99573.86
2023-03-11T09:55:19.074Z,99570.15
2023-03-11T09:56:18.083Z,99569.87
2023-03-11T09:57:17.064Z,99569.58
2023-03-11T09:58:18.067Z,99569.57
2023-03-11T09:59:19.072Z,99570.69
2023-03-11T10:00:17.092Z,99570.45
2023-03-11T10:01:16.061Z,99564.82
2023-03-11T10:02:14.277Z,99568.55
2023-03-11T10:03:19.117Z,99563.00
2023-03-11T10:04:16.061Z,99565.33
2023-03-11T10:05:18.061Z,99561.11
2023-03-11T10:06:19.081Z,99562.70
2023-03-11T10:07:20.073Z,99559.20
2023-03-11T10:08:22.074Z,99558.83
2023-03-11T10:09:19.064Z,99560.39
2023-03-11T10:10:14.074Z,99556.25
2023-03-11T10:11:19.058Z,99555.93
2023-03-11T10:12:21.066Z,99558.23
2023-03-11T10:13:19.070Z,99555.60
2023-03-11T10:14:24.065Z,99550.91
2023-03-11T10:15:22.113Z,99554.09
2023-03-11T10:16:21.135Z,99550.28
2023-03-11T10:17:19.081Z,99554.26
2023-03-11T10:18:19.070Z,99549.50
2023-03-11T10:19:19.062Z,99549.22
2023-03-11T10:20:19.066Z,99548.37
2023-03-11T10:21:20.056Z,99550.08
2023-03-11T10:22:21.063Z,99553.77
2023-03-11T10:23:19.085Z,99558.22
2023-03-11T10:24:21.088Z,99568.55
2023-03-11T10:25:24.058Z,99572.30
2023-03-11T10:26:19.063Z,99574.16
2023-03-11T10:27:18.085Z,99575.98
2023-03-11T10:28:16.069Z,99578.42
2023-03-11T10:29:18.090Z,99580.14
2023-03-11T10:30:22.071Z,99576.95
2023-03-11T10:31:19.211Z,99576.02
2023-03-11T10:32:18.109Z,99570.68
2023-03-11T10:33:19.074Z,99564.71
2023-03-11T10:34:21.066Z,99560.67
2023-03-11T10:35:19.064Z,99558.49
2023-03-11T10:36:16.062Z,99559.69
2023-03-11T10:37:16.072Z,99559.79
2023-03-11T10:38:19.063Z,99561.66
2023-03-11T10:39:11.066Z,99560.91
2023-03-11T10:40:19.064Z,99560.54
2023-03-11T10:41:17.079Z,99563.35
2023-03-11T10:42:19.074Z,99560.08
2023-03-11T10:43:19.072Z,99562.27
2023-03-11T10:44:19.068Z,99561.31
2023-03-11T10:45:14.067Z,99561.47
2023-03-11T10:46:19.122Z,99562.97
2023-03-11T10:47:21.065Z,99565.70
2023-03-11T10:48:15.076Z,99562.27
2023-03-11T10:49:15.063Z,99559.55
2023-03-11T10:50:18.096Z,99563.94
2023-03-11T10:51:18.088Z,99557.04
2023-03-11T10:52:11.060Z,99552.26
2023-03-11T10:53:13.084Z,99556.81
2023-03-11T10:54:15.066Z,99554.02
2023-03-11T10:55:15.061Z,99554.25
2023-03-11T10:56:19.064Z,99548.85
2023-03-11T10:57:19.067Z,99541.52
2023-03-11T10:58:14.110Z,99544.80
2023-03-11T10:59:22.066Z,99548.05
2023-03-11T11:00:23.065Z,99541.88
2023-03-11T11:01:15.126Z,99541.99
2023-03-11T11:02:19.067Z,99541.75
2023-03-11T11:03:21.074Z,99542.65
2023-03-11T11:04:19.123Z,99543.41
2023-03-11T11:05:22.065Z,99541.94
2023-03-11T11:06:19.070Z,99540.13
2023-03-11T11:07:19.067Z,99537.28
2023-03-11T11:08:15.075Z,99533.68
2023-03-11T11:09:19.068Z,99539.38
2023-03-11T11:10:19.140Z,99534.54
2023-03-11T11:11:19.072Z,99537.29
2023-03-11T11:12:15.076Z,99541.12
2023-03-11T11:13:18.071Z,99542.59
2023-03-11T11:14:11.069Z,99544.53
2023-03-11T11:15:19.069Z,99540.84
2023-03-11T11:16:20.109Z,99544.05
2023-03-11T11:17:19.074Z,99545.94
2023-03-11T11:18:16.071Z,99543.67
2023-03-11T11:19:14.076Z,99542.72
2023-03-11T11:20:18.081Z,99538.06
2023-03-11T11:21:18.110Z,99537.01
2023-03-11T11:22:16.069Z,99532.84
2023-03-11T11:23:19.075Z,99531.48
2023-03-11T11:24:19.075Z,99534.40
2023-03-11T11:25:19.097Z,99528.29
2023-03-11T11:26:15.077Z,99530.41
2023-03-11T11:27:19.072Z,99529.85
2023-03-11T11:28:18.085Z,99525.64
2023-03-11T11:29:20.080Z,99526.07
2023-03-11T11:30:15.096Z,99526.96
2023-03-11T11:31:19.163Z,99524.25
2023-03-11T11:32:22.182Z,99516.90
2023-03-11T11:33:21.074Z,99518.45
2023-03-11T11:34:19.085Z,99513.82
2023-03-11T11:35:14.096Z,99511.67
2023-03-11T11:36:15.091Z,99509.68
2023-03-11T11:37:14.071Z,99505.77
2023-03-11T11:38:11.088Z,99510.20
2023-03-11T11:39:16.072Z,99509.41
2023-03-11T11:40:22.078Z,99507.86
2023-03-11T11:41:18.070Z,99511.54
2023-03-11T11:42:13.088Z,99510.10
2023-03-11T11:43:17.068Z,99511.72
2023-03-11T11:44:14.076Z,99512.08